Cedar Beach, New Jersey
Current Conditions -  °F | °C
As of 6:35 PM on Wednesday 22 Oct 2014 (Local Time) from KLDJ Reporting Station
Light Rain Light Rain  
Wind Chill: 56°   Ceiling: 2800
Heat Index: 56°   Visibility: 5mi
Dew Point: 53°   Wind: 9mph
Humidity: 88%   Direction: 360°N
Pressure: 29.84"   Gusts: NA
Location:  40.431°N, 74.1031°W
Report Text: KLDJ 222235Z AUTO 36008KT 5SM -RA SCT020 BKN028 OVC033 14/12 A2984 RMK AO2 LTG DSNT S P0005 T01350116
Loading
Personal Weather Stations






























Interactive Weather Map
Tropical Storm Tracking
New forecast layout! Learn more

10-Day Weather Forecast

Advertisements
Track Severe Weather on mobile